sensor_id;sensor_type;location;lat;lon;timestamp;pressure;altitude;pressure_sealevel;temperature;humidity
35647;BME280;28680;45.642;13.756;2023-07-22T00:01:32;100780.22;;;25.90;100.00
35647;BME280;28680;45.642;13.756;2023-07-22T00:03:58;100764.63;;;26.05;100.00
35647;BME280;28680;45.642;13.756;2023-07-22T00:06:24;100743.69;;;26.07;100.00
35647;BME280;28680;45.642;13.756;2023-07-22T00:08:50;100730.38;;;26.12;100.00
35647;BME280;28680;45.642;13.756;2023-07-22T00:11:16;100708.66;;;26.14;100.00
35647;BME280;28680;45.642;13.756;2023-07-22T00:13:42;100694.59;;;26.30;100.00
35647;BME280;28680;45.642;13.756;2023-07-22T00:16:09;100676.81;;;26.29;100.00
35647;BME280;28680;45.642;13.756;2023-07-22T00:18:36;100674.25;;;26.53;100.00
35647;BME280;28680;45.642;13.756;2023-07-22T00:21:02;100685.56;;;26.43;100.00
35647;BME280;28680;45.642;13.756;2023-07-22T00:23:29;100694.28;;;26.20;100.00
35647;BME280;28680;45.642;13.756;2023-07-22T00:25:55;100702.28;;;26.08;100.00
35647;BME280;28680;45.642;13.756;2023-07-22T00:28:21;100709.69;;;25.94;100.00
35647;BME280;28680;45.642;13.756;2023-07-22T00:30:47;100720.03;;;25.91;100.00
35647;BME280;28680;45.642;13.756;2023-07-22T00:33:15;100718.75;;;25.75;100.00
35647;BME280;28680;45.642;13.756;2023-07-22T00:35:41;100722.16;;;25.63;100.00
35647;BME280;28680;45.642;13.756;2023-07-22T00:38:07;100712.34;;;25.51;100.00
35647;BME280;28680;45.642;13.756;2023-07-22T00:40:33;100706.63;;;25.40;100.00
35647;BME280;28680;45.642;13.756;2023-07-22T00:42:59;100704.59;;;25.36;100.00
35647;BME280;28680;45.642;13.756;2023-07-22T00:45:25;100722.13;;;25.38;100.00
35647;BME280;28680;45.642;13.756;2023-07-22T00:47:52;100740.13;;;25.38;100.00
35647;BME280;28680;45.642;13.756;2023-07-22T00:50:19;100741.66;;;25.27;100.00
35647;BME280;28680;45.642;13.756;2023-07-22T00:52:45;100755.25;;;25.32;100.00
35647;BME280;28680;45.642;13.756;2023-07-22T00:55:11;100751.75;;;25.32;100.00
35647;BME280;28680;45.642;13.756;2023-07-22T00:57:37;100746.59;;;25.30;100.00
35647;BME280;28680;45.642;13.756;2023-07-22T01:00:05;100751.53;;;25.33;100.00
35647;BME280;28680;45.642;13.756;2023-07-22T01:02:32;100751.75;;;25.32;100.00
35647;BME280;28680;45.642;13.756;2023-07-22T01:04:58;100732.19;;;25.49;100.00
35647;BME280;28680;45.642;13.756;2023-07-22T01:07:24;100722.81;;;25.34;100.00
35647;BME280;28680;45.642;13.756;2023-07-22T01:09:56;100704.81;;;25.34;100.00
35647;BME280;28680;45.642;13.756;2023-07-22T01:12:24;100698.94;;;25.44;100.00
35647;BME280;28680;45.642;13.756;2023-07-22T01:14:50;100701.25;;;25.65;100.00
35647;BME280;28680;45.642;13.756;2023-07-22T01:17:16;100696.88;;;25.46;100.00
35647;BME280;28680;45.642;13.756;2023-07-22T01:19:43;100702.56;;;25.31;100.00
35647;BME280;28680;45.642;13.756;2023-07-22T01:22:09;100697.84;;;25.26;100.00
35647;BME280;28680;45.642;13.756;2023-07-22T01:24:38;100692.91;;;25.23;100.00
35647;BME280;28680;45.642;13.756;2023-07-22T01:27:07;100676.59;;;25.25;100.00
35647;BME280;28680;45.642;13.756;2023-07-22T01:29:36;100669.38;;;25.19;100.00
35647;BME280;28680;45.642;13.756;2023-07-22T01:32:03;100662.00;;;25.39;100.00
35647;BME280;28680;45.642;13.756;2023-07-22T01:34:29;100670.28;;;25.38;100.00
35647;BME280;28680;45.642;13.756;2023-07-22T01:36:57;100664.81;;;25.19;100.00
35647;BME280;28680;45.642;13.756;2023-07-22T01:39:24;100673.75;;;25.13;100.00
35647;BME280;28680;45.642;13.756;2023-07-22T01:41:50;100672.34;;;25.10;100.00
35647;BME280;28680;45.642;13.756;2023-07-22T01:44:16;100669.06;;;25.08;100.00
35647;BME280;28680;45.642;13.756;2023-07-22T01:46:42;100678.34;;;25.06;100.00
35647;BME280;28680;45.642;13.756;2023-07-22T01:49:11;100682.28;;;25.03;100.00
35647;BME280;28680;45.642;13.756;2023-07-22T01:51:39;100688.28;;;25.05;100.00
35647;BME280;28680;45.642;13.756;2023-07-22T01:54:06;100689.16;;;24.99;100.00
35647;BME280;28680;45.642;13.756;2023-07-22T01:56:33;100696.06;;;25.14;100.00
35647;BME280;28680;45.642;13.756;2023-07-22T01:58:59;100694.56;;;25.18;100.00
35647;BME280;28680;45.642;13.756;2023-07-22T02:01:25;100687.78;;;25.15;100.00
35647;BME280;28680;45.642;13.756;2023-07-22T02:03:51;100683.50;;;25.07;100.00
35647;BME280;28680;45.642;13.756;2023-07-22T02:06:17;100677.53;;;25.05;100.00
35647;BME280;28680;45.642;13.756;2023-07-22T02:08:43;100677.75;;;25.04;100.00
35647;BME280;28680;45.642;13.756;2023-07-22T02:11:10;100671.28;;;25.12;100.00
35647;BME280;28680;45.642;13.756;2023-07-22T02:13:36;100670.69;;;25.09;100.00
35647;BME280;28680;45.642;13.756;2023-07-22T02:16:03;100670.69;;;25.09;100.00
35647;BME280;28680;45.642;13.756;2023-07-22T02:18:29;100670.25;;;25.13;100.00
35647;BME280;28680;45.642;13.756;2023-07-22T02:20:56;100671.75;;;25.08;100.00
35647;BME280;28680;45.642;13.756;2023-07-22T02:23:23;100667.19;;;25.09;100.00
35647;BME280;28680;45.642;13.756;2023-07-22T02:25:53;100674.63;;;25.07;100.00
35647;BME280;28680;45.642;13.756;2023-07-22T02:28:20;100671.97;;;25.00;100.00
35647;BME280;28680;45.642;13.756;2023-07-22T02:30:50;100678.00;;;24.96;100.00
35647;BME280;28680;45.642;13.756;2023-07-22T02:33:19;100681.94;;;24.93;100.00
35647;BME280;28680;45.642;13.756;2023-07-22T02:35:46;100675.81;;;24.86;100.00
35647;BME280;28680;45.642;13.756;2023-07-22T02:38:13;100687.75;;;24.90;100.00
35647;BME280;28680;45.642;13.756;2023-07-22T02:40:40;100685.28;;;24.88;100.00
35647;BME280;28680;45.642;13.756;2023-07-22T02:43:06;100688.84;;;24.82;100.00
35647;BME280;28680;45.642;13.756;2023-07-22T02:45:36;100700.19;;;24.84;100.00
35647;BME280;28680;45.642;13.756;2023-07-22T02:48:03;100712.53;;;24.85;100.00
35647;BME280;28680;45.642;13.756;2023-07-22T02:50:31;100715.88;;;24.81;100.00
35647;BME280;28680;45.642;13.756;2023-07-22T02:52:57;100717.31;;;24.83;100.00
35647;BME280;28680;45.642;13.756;2023-07-22T02:55:24;100732.53;;;24.89;100.00
35647;BME280;28680;45.642;13.756;2023-07-22T02:57:50;100730.72;;;24.90;100.00
35647;BME280;28680;45.642;13.756;2023-07-22T03:00:18;100741.66;;;24.82;100.00
35647;BME280;28680;45.642;13.756;2023-07-22T03:02:56;100744.59;;;24.80;100.00
35647;BME280;28680;45.642;13.756;2023-07-22T03:05:29;100753.66;;;24.86;100.00
35647;BME280;28680;45.642;13.756;2023-07-22T03:07:56;100757.72;;;24.95;100.00
35647;BME280;28680;45.642;13.756;2023-07-22T03:10:23;100753.78;;;24.98;100.00
35647;BME280;28680;45.642;13.756;2023-07-22T03:12:51;100750.91;;;24.99;100.00
35647;BME280;28680;45.642;13.756;2023-07-22T03:15:23;100758.50;;;25.02;100.00
35647;BME280;28680;45.642;13.756;2023-07-22T03:17:52;100772.13;;;25.01;100.00
35647;BME280;28680;45.642;13.756;2023-07-22T03:20:19;100775.06;;;24.99;100.00
35647;BME280;28680;45.642;13.756;2023-07-22T03:22:47;100773.00;;;24.95;100.00
35647;BME280;28680;45.642;13.756;2023-07-22T03:25:14;100775.47;;;24.96;100.00
35647;BME280;28680;45.642;13.756;2023-07-22T03:27:43;100784.00;;;24.80;100.00
35647;BME280;28680;45.642;13.756;2023-07-22T03:30:13;100785.22;;;24.84;100.00
35647;BME280;28680;45.642;13.756;2023-07-22T03:32:47;100789.59;;;24.78;100.00
35647;BME280;28680;45.642;13.756;2023-07-22T03:35:14;100785.88;;;24.86;100.00
35647;BME280;28680;45.642;13.756;2023-07-22T03:37:40;100790.19;;;24.87;100.00
35647;BME280;28680;45.642;13.756;2023-07-22T03:40:08;100786.22;;;24.89;100.00
35647;BME280;28680;45.642;13.756;2023-07-22T03:42:40;100791.38;;;24.91;100.00
35647;BME280;28680;45.642;13.756;2023-07-22T03:45:08;100800.66;;;24.95;100.00
35647;BME280;28680;45.642;13.756;2023-07-22T03:47:35;100796.56;;;24.93;100.00
35647;BME280;28680;45.642;13.756;2023-07-22T03:50:02;100796.94;;;24.96;100.00
35647;BME280;28680;45.642;13.756;2023-07-22T03:52:28;100801.31;;;24.90;100.00
35647;BME280;28680;45.642;13.756;2023-07-22T03:54:54;100808.34;;;24.85;100.00
35647;BME280;28680;45.642;13.756;2023-07-22T03:57:26;100803.19;;;24.90;100.00
35647;BME280;28680;45.642;13.756;2023-07-22T03:59:54;100809.16;;;24.92;100.00
35647;BME280;28680;45.642;13.756;2023-07-22T04:02:21;100809.56;;;24.96;100.00
35647;BME280;28680;45.642;13.756;2023-07-22T04:04:47;100819.28;;;24.90;100.00
35647;BME280;28680;45.642;13.756;2023-07-22T04:07:13;100824.47;;;24.85;100.00
35647;BME280;28680;45.642;13.756;2023-07-22T04:09:40;100836.22;;;24.90;100.00
35647;BME280;28680;45.642;13.756;2023-07-22T04:12:07;100843.66;;;24.82;100.00
35647;BME280;28680;45.642;13.756;2023-07-22T04:14:33;100846.75;;;24.85;100.00
35647;BME280;28680;45.642;13.756;2023-07-22T04:16:59;100844.28;;;24.84;100.00
35647;BME280;28680;45.642;13.756;2023-07-22T04:19:25;100838.50;;;24.87;100.00
35647;BME280;28680;45.642;13.756;2023-07-22T04:21:52;100848.56;;;25.05;100.00
35647;BME280;28680;45.642;13.756;2023-07-22T04:24:18;100840.94;;;24.95;100.00
35647;BME280;28680;45.642;13.756;2023-07-22T04:26:45;100838.09;;;24.83;100.00
35647;BME280;28680;45.642;13.756;2023-07-22T04:29:11;100842.59;;;24.89;100.00
35647;BME280;28680;45.642;13.756;2023-07-22T04:31:38;100841.38;;;24.92;100.00
35647;BME280;28680;45.642;13.756;2023-07-22T04:34:05;100837.69;;;24.86;100.00
35647;BME280;28680;45.642;13.756;2023-07-22T04:36:32;100837.06;;;24.84;100.00
35647;BME280;28680;45.642;13.756;2023-07-22T04:38:59;100837.56;;;25.06;100.00
35647;BME280;28680;45.642;13.756;2023-07-22T04:41:25;100833.13;;;24.94;100.00
35647;BME280;28680;45.642;13.756;2023-07-22T04:43:51;100830.19;;;24.95;100.00
35647;BME280;28680;45.642;13.756;2023-07-22T04:46:18;100845.28;;;24.96;100.00
35647;BME280;28680;45.642;13.756;2023-07-22T04:48:44;100836.97;;;25.11;100.00
35647;BME280;28680;45.642;13.756;2023-07-22T04:51:10;100853.03;;;25.18;100.00
35647;BME280;28680;45.642;13.756;2023-07-22T04:53:36;100854.69;;;25.19;100.00
35647;BME280;28680;45.642;13.756;2023-07-22T04:56:02;100861.72;;;25.13;100.00
35647;BME280;28680;45.642;13.756;2023-07-22T04:58:29;100848.72;;;25.10;100.00
35647;BME280;28680;45.642;13.756;2023-07-22T05:00:55;100850.78;;;25.15;100.00
35647;BME280;28680;45.642;13.756;2023-07-22T05:03:21;100860.50;;;25.09;100.00
35647;BME280;28680;45.642;13.756;2023-07-22T05:05:51;100861.75;;;25.06;100.00
35647;BME280;28680;45.642;13.756;2023-07-22T05:08:17;100868.13;;;25.12;100.00
35647;BME280;28680;45.642;13.756;2023-07-22T05:10:43;100862.53;;;25.20;100.00
35647;BME280;28680;45.642;13.756;2023-07-22T05:13:11;100869.53;;;25.28;100.00
35647;BME280;28680;45.642;13.756;2023-07-22T05:15:37;100879.00;;;25.37;100.00
35647;BME280;28680;45.642;13.756;2023-07-22T05:18:03;100879.00;;;25.37;100.00
35647;BME280;28680;45.642;13.756;2023-07-22T05:20:29;100881.63;;;25.51;100.00
35647;BME280;28680;45.642;13.756;2023-07-22T05:22:55;100878.72;;;25.52;100.00
35647;BME280;28680;45.642;13.756;2023-07-22T05:25:22;100880.56;;;25.52;100.00
35647;BME280;28680;45.642;13.756;2023-07-22T05:27:49;100872.97;;;25.80;100.00
35647;BME280;28680;45.642;13.756;2023-07-22T05:30:15;100876.19;;;25.96;100.00
35647;BME280;28680;45.642;13.756;2023-07-22T05:32:41;100874.25;;;26.03;100.00
35647;BME280;28680;45.642;13.756;2023-07-22T05:35:08;100869.53;;;25.98;100.00
35647;BME280;28680;45.642;13.756;2023-07-22T05:37:34;100872.31;;;26.10;100.00
35647;BME280;28680;45.642;13.756;2023-07-22T05:40:00;100874.63;;;26.06;100.00
35647;BME280;28680;45.642;13.756;2023-07-22T05:42:27;100874.50;;;26.20;100.00
35647;BME280;28680;45.642;13.756;2023-07-22T05:44:58;100874.09;;;26.23;100.00
35647;BME280;28680;45.642;13.756;2023-07-22T05:47:24;100882.31;;;26.28;100.00
35647;BME280;28680;45.642;13.756;2023-07-22T05:49:50;100879.34;;;26.36;100.00
35647;BME280;28680;45.642;13.756;2023-07-22T05:52:17;100872.97;;;26.31;100.00
35647;BME280;28680;45.642;13.756;2023-07-22T05:54:43;100873.31;;;26.41;100.00
35647;BME280;28680;45.642;13.756;2023-07-22T05:57:09;100878.63;;;26.48;100.00
35647;BME280;28680;45.642;13.756;2023-07-22T05:59:35;100885.13;;;26.58;100.00
35647;BME280;28680;45.642;13.756;2023-07-22T06:02:12;100884.06;;;26.41;100.00
35647;BME280;28680;45.642;13.756;2023-07-22T06:04:39;100889.47;;;26.41;100.00
35647;BME280;28680;45.642;13.756;2023-07-22T06:07:05;100897.16;;;26.56;100.00
35647;BME280;28680;45.642;13.756;2023-07-22T06:09:31;100896.25;;;26.43;100.00
35647;BME280;28680;45.642;13.756;2023-07-22T06:11:57;100897.22;;;26.49;100.00
35647;BME280;28680;45.642;13.756;2023-07-22T06:14:23;100902.84;;;26.48;100.00
35647;BME280;28680;45.642;13.756;2023-07-22T06:16:49;100907.91;;;26.37;100.00
35647;BME280;28680;45.642;13.756;2023-07-22T06:19:15;100906.63;;;26.40;100.00
35647;BME280;28680;45.642;13.756;2023-07-22T06:21:44;100909.31;;;26.40;100.00
35647;BME280;28680;45.642;13.756;2023-07-22T06:24:10;100911.88;;;26.53;100.00
35647;BME280;28680;45.642;13.756;2023-07-22T06:26:36;100907.91;;;26.56;100.00
35647;BME280;28680;45.642;13.756;2023-07-22T06:29:02;100911.63;;;26.61;100.00
35647;BME280;28680;45.642;13.756;2023-07-22T06:31:28;100910.22;;;26.77;100.00
35647;BME280;28680;45.642;13.756;2023-07-22T06:38:30;100925.50;;;27.02;100.00
35647;BME280;28680;45.642;13.756;2023-07-22T06:41:02;100932.44;;;27.10;100.00
35647;BME280;28680;45.642;13.756;2023-07-22T06:43:42;100937.03;;;27.09;100.00
35647;BME280;28680;45.642;13.756;2023-07-22T06:46:08;100928.63;;;26.99;100.00
35647;BME280;28680;45.642;13.756;2023-07-22T06:48:37;100939.19;;;27.00;100.00
35647;BME280;28680;45.642;13.756;2023-07-22T06:51:07;100937.16;;;27.14;100.00
35647;BME280;28680;45.642;13.756;2023-07-22T06:53:33;100940.38;;;27.04;100.00
35647;BME280;28680;45.642;13.756;2023-07-22T06:56:05;100928.84;;;26.97;100.00
35647;BME280;28680;45.642;13.756;2023-07-22T06:58:37;100941.34;;;26.92;100.00
35647;BME280;28680;45.642;13.756;2023-07-22T07:01:25;100947.56;;;26.92;100.00
35647;BME280;28680;45.642;13.756;2023-07-22T07:04:10;100949.75;;;27.02;100.00
35647;BME280;28680;45.642;13.756;2023-07-22T07:06:39;100949.75;;;27.02;100.00
35647;BME280;28680;45.642;13.756;2023-07-22T07:09:05;100960.00;;;27.12;100.00
35647;BME280;28680;45.642;13.756;2023-07-22T07:11:32;100958.25;;;27.17;100.00
35647;BME280;28680;45.642;13.756;2023-07-22T07:14:00;100955.06;;;27.27;100.00
35647;BME280;28680;45.642;13.756;2023-07-22T07:16:31;100960.63;;;27.32;100.00
35647;BME280;28680;45.642;13.756;2023-07-22T07:19:07;100966.88;;;27.45;100.00
35647;BME280;28680;45.642;13.756;2023-07-22T07:21:55;100965.41;;;27.30;100.00
35647;BME280;28680;45.642;13.756;2023-07-22T07:24:21;100963.59;;;27.42;100.00
35647;BME280;28680;45.642;13.756;2023-07-22T07:26:50;100962.38;;;27.57;100.00
35647;BME280;28680;45.642;13.756;2023-07-22T07:29:16;100965.81;;;27.64;100.00
35647;BME280;28680;45.642;13.756;2023-07-22T07:31:42;100965.94;;;27.69;100.00
35647;BME280;28680;45.642;13.756;2023-07-22T07:34:08;100967.97;;;27.74;100.00
35647;BME280;28680;45.642;13.756;2023-07-22T07:36:34;100956.09;;;27.93;100.00
35647;BME280;28680;45.642;13.756;2023-07-22T07:39:00;100962.34;;;28.06;100.00
35647;BME280;28680;45.642;13.756;2023-07-22T07:41:27;100960.69;;;28.16;100.00
35647;BME280;28680;45.642;13.756;2023-07-22T07:43:53;100962.50;;;28.23;100.00
35647;BME280;28680;45.642;13.756;2023-07-22T07:46:29;100956.25;;;28.22;100.00
35647;BME280;28680;45.642;13.756;2023-07-22T07:48:58;100961.09;;;28.32;100.00
35647;BME280;28680;45.642;13.756;2023-07-22T07:51:31;100959.94;;;28.51;100.00
35647;BME280;28680;45.642;13.756;2023-07-22T07:54:09;100951.72;;;28.46;100.00
35647;BME280;28680;45.642;13.756;2023-07-22T07:56:47;100955.75;;;28.55;100.00
35647;BME280;28680;45.642;13.756;2023-07-22T08:00:00;100969.69;;;28.52;100.00
35647;BME280;28680;45.642;13.756;2023-07-22T08:03:14;100978.84;;;28.39;100.00
35647;BME280;28680;45.642;13.756;2023-07-22T08:05:40;100982.72;;;28.44;100.00
35647;BME280;28680;45.642;13.756;2023-07-22T08:08:07;100983.66;;;28.49;100.00
35647;BME280;28680;45.642;13.756;2023-07-22T08:10:36;100982.50;;;28.57;100.00
35647;BME280;28680;45.642;13.756;2023-07-22T08:13:02;100971.69;;;28.69;100.00
35647;BME280;28680;45.642;13.756;2023-07-22T08:15:28;100972.97;;;28.90;100.00
35647;BME280;28680;45.642;13.756;2023-07-22T08:17:54;100966.50;;;29.03;100.00
35647;BME280;28680;45.642;13.756;2023-07-22T08:20:20;100971.34;;;29.01;100.00
35647;BME280;28680;45.642;13.756;2023-07-22T08:22:46;100967.59;;;29.13;100.00
35647;BME280;28680;45.642;13.756;2023-07-22T08:25:12;100963.34;;;29.18;100.00
35647;BME280;28680;45.642;13.756;2023-07-22T08:27:39;100960.84;;;29.28;100.00
35647;BME280;28680;45.642;13.756;2023-07-22T08:30:08;100955.88;;;29.37;100.00
35647;BME280;28680;45.642;13.756;2023-07-22T08:32:34;100955.16;;;29.41;100.00
35647;BME280;28680;45.642;13.756;2023-07-22T08:35:00;100950.72;;;29.35;100.00
35647;BME280;28680;45.642;13.756;2023-07-22T08:37:26;100959.41;;;29.37;100.00
35647;BME280;28680;45.642;13.756;2023-07-22T08:40:40;100959.44;;;29.25;100.00
35647;BME280;28680;45.642;13.756;2023-07-22T08:43:11;100959.22;;;29.27;100.00
35647;BME280;28680;45.642;13.756;2023-07-22T08:45:38;100958.97;;;29.16;100.00
35647;BME280;28680;45.642;13.756;2023-07-22T08:48:12;100948.94;;;29.41;100.00
35647;BME280;28680;45.642;13.756;2023-07-22T08:50:58;100953.00;;;29.55;100.00
35647;BME280;28680;45.642;13.756;2023-07-22T08:53:38;100949.28;;;29.73;100.00
35647;BME280;28680;45.642;13.756;2023-07-22T08:56:07;100945.59;;;30.08;100.00
35647;BME280;28680;45.642;13.756;2023-07-22T08:58:34;100945.09;;;30.11;100.00
35647;BME280;28680;45.642;13.756;2023-07-22T09:01:02;100955.41;;;29.97;100.00
35647;BME280;28680;45.642;13.756;2023-07-22T09:03:28;100953.78;;;30.13;100.00
35647;BME280;28680;45.642;13.756;2023-07-22T09:05:54;100953.00;;;30.46;100.00
35647;BME280;28680;45.642;13.756;2023-07-22T09:08:21;100952.88;;;30.58;100.00
35647;BME280;28680;45.642;13.756;2023-07-22T09:10:48;100964.25;;;30.77;100.00
35647;BME280;28680;45.642;13.756;2023-07-22T09:13:36;100967.84;;;30.61;100.00
35647;BME280;28680;45.642;13.756;2023-07-22T09:16:06;100968.88;;;30.60;100.00
35647;BME280;28680;45.642;13.756;2023-07-22T09:18:39;100971.34;;;30.61;100.00
35647;BME280;28680;45.642;13.756;2023-07-22T09:21:05;100967.88;;;30.66;100.00
35647;BME280;28680;45.642;13.756;2023-07-22T09:23:34;100970.91;;;30.69;100.00
35647;BME280;28680;45.642;13.756;2023-07-22T09:26:35;100969.66;;;30.55;100.00
35647;BME280;28680;45.642;13.756;2023-07-22T09:29:01;100966.50;;;30.63;100.00
35647;BME280;28680;45.642;13.756;2023-07-22T09:31:28;100974.72;;;30.68;100.00
35647;BME280;28680;45.642;13.756;2023-07-22T09:33:54;100964.22;;;30.72;100.00
35647;BME280;28680;45.642;13.756;2023-07-22T09:36:20;100972.56;;;30.70;100.00
35647;BME280;28680;45.642;13.756;2023-07-22T09:39:02;100964.16;;;30.50;100.00
35647;BME280;28680;45.642;13.756;2023-07-22T09:41:29;100957.03;;;30.44;100.00
35647;BME280;28680;45.642;13.756;2023-07-22T09:44:03;100958.97;;;30.48;100.00
35647;BME280;28680;45.642;13.756;2023-07-22T09:46:32;100960.50;;;30.78;100.00
35647;BME280;28680;45.642;13.756;2023-07-22T09:49:03;100962.69;;;31.20;100.00
35647;BME280;28680;45.642;13.756;2023-07-22T09:51:35;100961.13;;;31.02;100.00
35647;BME280;28680;45.642;13.756;2023-07-22T09:54:17;100959.66;;;31.39;100.00
35647;BME280;28680;45.642;13.756;2023-07-22T09:56:48;100963.16;;;31.89;100.00
35647;BME280;28680;45.642;13.756;2023-07-22T09:59:15;100969.94;;;31.86;100.00
35647;BME280;28680;45.642;13.756;2023-07-22T10:06:15;100970.00;;;31.91;100.00
35647;BME280;28680;45.642;13.756;2023-07-22T10:08:43;100959.44;;;32.59;100.00
35647;BME280;28680;45.642;13.756;2023-07-22T10:33:11;100931.41;;;32.54;100.00
35647;BME280;28680;45.642;13.756;2023-07-22T10:45:53;100925.75;;;32.60;100.00
35647;BME280;28680;45.642;13.756;2023-07-22T10:48:50;100925.63;;;32.93;100.00
35647;BME280;28680;45.642;13.756;2023-07-22T12:05:35;100865.84;;;32.88;100.00
35647;BME280;28680;45.642;13.756;2023-07-22T12:22:06;100855.41;;;33.94;100.00
35647;BME280;28680;45.642;13.756;2023-07-22T12:40:10;100856.16;;;32.54;100.00
35647;BME280;28680;45.642;13.756;2023-07-22T12:43:08;100877.84;;;32.44;100.00
35647;BME280;28680;45.642;13.756;2023-07-22T12:45:34;100892.94;;;32.30;100.00
35647;BME280;28680;45.642;13.756;2023-07-22T12:48:00;100895.88;;;32.23;100.00
35647;BME280;28680;45.642;13.756;2023-07-22T13:09:22;100868.31;;;30.73;100.00
35647;BME280;28680;45.642;13.756;2023-07-22T13:12:08;100868.34;;;30.95;100.00
35647;BME280;28680;45.642;13.756;2023-07-22T13:14:45;100880.47;;;31.15;100.00
35647;BME280;28680;45.642;13.756;2023-07-22T13:17:11;100876.66;;;31.11;100.00
35647;BME280;28680;45.642;13.756;2023-07-22T13:19:37;100865.03;;;31.15;100.00
35647;BME280;28680;45.642;13.756;2023-07-22T13:26:18;100842.69;;;30.59;100.00
35647;BME280;28680;45.642;13.756;2023-07-22T13:32:37;100825.94;;;30.23;100.00
35647;BME280;28680;45.642;13.756;2023-07-22T13:35:04;100858.81;;;29.98;100.00
35647;BME280;28680;45.642;13.756;2023-07-22T13:41:21;100873.81;;;30.39;100.00
35647;BME280;28680;45.642;13.756;2023-07-22T13:49:26;100951.78;;;28.16;100.00
35647;BME280;28680;45.642;13.756;2023-07-22T13:52:12;100977.41;;;26.91;100.00
35647;BME280;28680;45.642;13.756;2023-07-22T13:54:39;100984.94;;;26.82;100.00
35647;BME280;28680;45.642;13.756;2023-07-22T14:09:17;100929.97;;;27.08;100.00
35647;BME280;28680;45.642;13.756;2023-07-22T14:27:24;101027.59;;;26.85;100.00
35647;BME280;28680;45.642;13.756;2023-07-22T14:54:18;100941.88;;;28.52;100.00
35647;BME280;28680;45.642;13.756;2023-07-22T15:01:17;100931.19;;;28.69;100.00
35647;BME280;28680;45.642;13.756;2023-07-22T15:43:29;100903.47;;;29.66;100.00
35647;BME280;28680;45.642;13.756;2023-07-22T15:45:55;100907.91;;;29.44;100.00
35647;BME280;28680;45.642;13.756;2023-07-22T15:49:18;100908.44;;;29.58;100.00
35647;BME280;28680;45.642;13.756;2023-07-22T15:51:45;100923.63;;;29.47;100.00
35647;BME280;28680;45.642;13.756;2023-07-22T15:54:14;100921.19;;;29.74;100.00
35647;BME280;28680;45.642;13.756;2023-07-22T15:56:41;100921.78;;;29.76;100.00
35647;BME280;28680;45.642;13.756;2023-07-22T15:59:19;100936.94;;;29.77;100.00
35647;BME280;28680;45.642;13.756;2023-07-22T16:01:45;100936.53;;;29.85;100.00
35647;BME280;28680;45.642;13.756;2023-07-22T16:04:11;100936.38;;;29.92;100.00
35647;BME280;28680;45.642;13.756;2023-07-22T16:06:40;100938.34;;;29.80;100.00
35647;BME280;28680;45.642;13.756;2023-07-22T16:09:22;100942.66;;;29.81;100.00
35647;BME280;28680;45.642;13.756;2023-07-22T16:11:47;100937.84;;;29.83;100.00
35647;BME280;28680;45.642;13.756;2023-07-22T16:14:13;100939.06;;;29.75;100.00
35647;BME280;28680;45.642;13.756;2023-07-22T16:16:40;100933.34;;;29.88;100.00
35647;BME280;28680;45.642;13.756;2023-07-22T16:19:06;100930.06;;;29.86;100.00
35647;BME280;28680;45.642;13.756;2023-07-22T16:21:32;100926.78;;;30.01;100.00
35647;BME280;28680;45.642;13.756;2023-07-22T16:23:59;100924.84;;;30.13;100.00
35647;BME280;28680;45.642;13.756;2023-07-22T16:26:25;100926.88;;;30.06;100.00
35647;BME280;28680;45.642;13.756;2023-07-22T16:28:51;100920.72;;;30.11;100.00
35647;BME280;28680;45.642;13.756;2023-07-22T16:31:20;100932.22;;;30.18;100.00
35647;BME280;28680;45.642;13.756;2023-07-22T16:34:16;100918.69;;;30.18;100.00
35647;BME280;28680;45.642;13.756;2023-07-22T16:40:37;100920.66;;;30.06;100.00
35647;BME280;28680;45.642;13.756;2023-07-22T16:43:03;100926.66;;;30.08;100.00
35647;BME280;28680;45.642;13.756;2023-07-22T16:45:29;100933.09;;;29.90;100.00
35647;BME280;28680;45.642;13.756;2023-07-22T16:47:55;100934.22;;;29.77;100.00
35647;BME280;28680;45.642;13.756;2023-07-22T16:50:23;100946.63;;;29.61;100.00
35647;BME280;28680;45.642;13.756;2023-07-22T16:52:49;100940.16;;;29.91;100.00
35647;BME280;28680;45.642;13.756;2023-07-22T16:55:15;100937.72;;;30.06;100.00
35647;BME280;28680;45.642;13.756;2023-07-22T16:57:41;100934.50;;;30.09;100.00
35647;BME280;28680;45.642;13.756;2023-07-22T17:00:08;100938.38;;;29.97;100.00
35647;BME280;28680;45.642;13.756;2023-07-22T17:02:43;100935.25;;;30.05;100.00
35647;BME280;28680;45.642;13.756;2023-07-22T17:05:09;100937.88;;;30.17;100.00
35647;BME280;28680;45.642;13.756;2023-07-22T17:08:10;100955.97;;;29.99;100.00
35647;BME280;28680;45.642;13.756;2023-07-22T17:10:36;100953.63;;;30.20;100.00
35647;BME280;28680;45.642;13.756;2023-07-22T17:13:02;100957.66;;;30.17;100.00
35647;BME280;28680;45.642;13.756;2023-07-22T17:15:28;100952.06;;;30.07;100.00
35647;BME280;28680;45.642;13.756;2023-07-22T17:17:54;100961.13;;;29.84;100.00
35647;BME280;28680;45.642;13.756;2023-07-22T17:20:20;100960.66;;;29.87;100.00
35647;BME280;28680;45.642;13.756;2023-07-22T17:22:49;100965.41;;;29.97;100.00